createdAt,value
2022-08-07T00:00:41.658Z,22.93
2022-08-07T00:01:44.040Z,22.58
2022-08-07T00:02:56.959Z,22.51
2022-08-07T00:03:55.031Z,22.38
2022-08-07T00:04:52.066Z,22.63
2022-08-07T00:05:52.728Z,21.36
2022-08-07T00:06:51.732Z,22.58
2022-08-07T00:07:50.589Z,22.57
2022-08-07T00:08:57.147Z,22.56
2022-08-07T00:10:25.506Z,22.51
2022-08-07T00:11:29.899Z,22.65
2022-08-07T00:12:29.812Z,22.76
2022-08-07T00:13:30.557Z,22.78
2022-08-07T00:14:31.495Z,22.71
2022-08-07T00:15:38.253Z,22.60
2022-08-07T00:16:43.401Z,22.68
2022-08-07T00:17:42.099Z,22.64
2022-08-07T00:18:39.289Z,22.27
2022-08-07T00:20:01.624Z,22.44
2022-08-07T00:20:57.616Z,22.59
2022-08-07T00:22:02.365Z,22.23
2022-08-07T00:23:00.223Z,22.58
2022-08-07T00:23:56.944Z,22.35
2022-08-07T00:24:53.886Z,22.22
2022-08-07T00:25:52.132Z,22.21
2022-08-07T00:27:06.185Z,22.49
2022-08-07T00:28:04.305Z,22.60
2022-08-07T00:29:01.677Z,22.66
2022-08-07T00:29:59.607Z,22.66
2022-08-07T00:30:56.454Z,22.19
2022-08-07T00:31:54.642Z,22.53
2022-08-07T00:32:52.094Z,22.68
2022-08-07T00:33:48.957Z,22.64
2022-08-07T00:34:49.246Z,22.57
2022-08-07T00:35:49.460Z,22.75
2022-08-07T00:36:46.551Z,22.67
2022-08-07T00:37:48.143Z,21.81
2022-08-07T00:38:45.255Z,22.56
2022-08-07T00:39:45.022Z,22.55
2022-08-07T00:40:44.385Z,22.55
2022-08-07T00:41:53.871Z,22.63
2022-08-07T00:42:59.368Z,22.70
2022-08-07T00:44:01.534Z,21.99
2022-08-07T00:44:59.614Z,22.66
2022-08-07T00:45:56.545Z,22.13
2022-08-07T00:46:53.854Z,22.54
2022-08-07T00:48:07.810Z,22.48
2022-08-07T00:49:09.542Z,22.38
2022-08-07T00:50:46.237Z,22.58
2022-08-07T00:51:56.475Z,22.53
2022-08-07T00:52:54.754Z,22.40
2022-08-07T00:53:55.843Z,22.30
2022-08-07T00:54:53.692Z,22.24
2022-08-07T00:56:02.647Z,22.18
2022-08-07T00:57:00.544Z,22.30
2022-08-07T00:57:57.846Z,22.19
2022-08-07T00:58:54.725Z,21.49
2022-08-07T00:59:53.265Z,22.34
2022-08-07T01:00:53.984Z,21.92
2022-08-07T01:01:51.224Z,22.21
2022-08-07T01:02:54.759Z,22.46
2022-08-07T01:03:56.861Z,22.33
2022-08-07T01:04:58.839Z,22.36
2022-08-07T01:05:56.656Z,22.48
2022-08-07T01:06:53.846Z,22.50
2022-08-07T01:07:50.694Z,22.11
2022-08-07T01:08:53.311Z,22.35
2022-08-07T01:10:06.016Z,22.27
2022-08-07T01:12:04.608Z,22.10
2022-08-07T01:12:29.618Z,22.06
2022-08-07T01:13:27.395Z,22.17
2022-08-07T01:14:31.896Z,22.27
2022-08-07T01:16:01.285Z,22.27
2022-08-07T01:16:52.307Z,22.24
2022-08-07T01:17:49.802Z,21.39
2022-08-07T01:18:46.652Z,22.11
2022-08-07T01:19:52.349Z,22.04
2022-08-07T01:21:22.397Z,22.10
2022-08-07T01:22:29.354Z,21.54
2022-08-07T01:23:36.418Z,22.16
2022-08-07T01:24:37.682Z,22.15
2022-08-07T01:25:55.146Z,22.24
2022-08-07T01:26:53.807Z,22.23
2022-08-07T01:27:51.606Z,21.65
2022-08-07T01:28:51.548Z,22.20
2022-08-07T01:29:50.628Z,22.18
2022-08-07T01:30:51.219Z,22.26
2022-08-07T01:31:50.025Z,22.20
2022-08-07T01:32:47.302Z,21.83
2022-08-07T01:33:55.298Z,22.03
2022-08-07T01:34:53.918Z,22.15
2022-08-07T01:35:53.844Z,22.02
2022-08-07T01:36:57.732Z,22.19
2022-08-07T01:37:55.411Z,22.11
2022-08-07T01:38:53.115Z,22.04
2022-08-07T01:39:51.145Z,22.14
2022-08-07T01:40:51.119Z,21.89
2022-08-07T01:42:07.493Z,22.20
2022-08-07T01:43:08.007Z,22.29
2022-08-07T01:44:05.514Z,21.85
2022-08-07T01:45:15.681Z,22.22
2022-08-07T01:46:17.086Z,21.74
2022-08-07T01:48:18.114Z,21.93
2022-08-07T01:48:35.960Z,22.27
2022-08-07T01:49:38.002Z,22.27
2022-08-07T01:50:43.290Z,22.48
2022-08-07T01:52:03.936Z,22.51
2022-08-07T01:53:08.787Z,22.55
2022-08-07T01:54:13.053Z,22.38
2022-08-07T01:55:37.315Z,22.56
2022-08-07T01:56:42.738Z,22.59
2022-08-07T01:58:01.285Z,22.47
2022-08-07T01:59:18.931Z,22.40
2022-08-07T02:00:16.502Z,22.36
2022-08-07T02:01:59.942Z,22.42
2022-08-07T02:03:19.248Z,22.48
2022-08-07T02:04:28.740Z,21.89
2022-08-07T02:05:43.073Z,22.14
2022-08-07T02:06:46.187Z,22.13
2022-08-07T02:07:52.357Z,22.41
2022-08-07T02:08:54.370Z,21.96
2022-08-07T02:09:58.712Z,22.58
2022-08-07T02:10:59.601Z,22.54
2022-08-07T02:12:05.081Z,22.61
2022-08-07T02:13:04.633Z,22.65
2022-08-07T02:14:07.918Z,22.55
2022-08-07T02:15:07.037Z,22.38
2022-08-07T02:16:07.440Z,22.21
2022-08-07T02:17:06.150Z,21.77
2022-08-07T02:18:04.482Z,21.67
2022-08-07T02:20:03.625Z,21.83
2022-08-07T02:20:25.866Z,21.81
2022-08-07T02:21:26.315Z,21.13
2022-08-07T02:22:45.086Z,21.81
2022-08-07T02:23:45.093Z,21.39
2022-08-07T02:24:47.177Z,21.66
2022-08-07T02:25:47.359Z,21.67
2022-08-07T02:27:05.651Z,21.97
2022-08-07T02:28:04.120Z,21.82
2022-08-07T02:29:13.738Z,21.75
2022-08-07T02:30:12.393Z,21.88
2022-08-07T02:31:28.080Z,21.78
2022-08-07T02:32:29.968Z,21.82
2022-08-07T02:33:32.789Z,21.73
2022-08-07T02:34:34.549Z,21.56
2022-08-07T02:36:29.816Z,21.75
2022-08-07T02:36:52.604Z,21.54
2022-08-07T02:37:52.008Z,21.45
2022-08-07T02:38:57.002Z,21.63
2022-08-07T02:40:02.175Z,21.49
2022-08-07T02:41:10.696Z,21.44
2022-08-07T02:42:10.249Z,21.35
2022-08-07T02:43:12.347Z,21.14
2022-08-07T02:44:11.835Z,21.46
2022-08-07T02:46:00.669Z,21.44
2022-08-07T02:46:36.858Z,21.52
2022-08-07T02:47:45.070Z,20.87
2022-08-07T02:48:54.634Z,21.31
2022-08-07T02:49:58.518Z,21.45
2022-08-07T02:51:03.196Z,21.30
2022-08-07T02:52:04.721Z,21.38
2022-08-07T02:53:11.714Z,21.52
2022-08-07T02:54:13.203Z,21.60
2022-08-07T02:55:28.107Z,21.21
2022-08-07T02:56:42.295Z,21.54
2022-08-07T02:57:41.161Z,21.53
2022-08-07T02:58:47.095Z,21.14
2022-08-07T02:59:54.847Z,21.37
2022-08-07T03:00:59.947Z,21.34
2022-08-07T03:02:02.067Z,21.01
2022-08-07T03:03:05.960Z,20.92
2022-08-07T03:04:07.847Z,21.20
2022-08-07T03:05:11.789Z,20.85
2022-08-07T03:06:26.261Z,21.16
2022-08-07T03:08:05.225Z,21.17
2022-08-07T03:08:49.757Z,21.07
2022-08-07T03:09:52.655Z,20.39
2022-08-07T03:10:50.495Z,20.96
2022-08-07T03:11:52.468Z,20.54
2022-08-07T03:12:55.474Z,20.97
2022-08-07T03:13:57.484Z,21.23
2022-08-07T03:14:56.380Z,21.42
2022-08-07T03:15:58.316Z,21.51
2022-08-07T03:16:57.188Z,21.47
2022-08-07T03:17:54.420Z,21.43
2022-08-07T03:18:52.686Z,21.33
2022-08-07T03:19:55.079Z,21.46
2022-08-07T03:20:53.162Z,21.43
2022-08-07T03:21:51.626Z,21.33
2022-08-07T03:22:51.136Z,21.25
2022-08-07T03:24:20.528Z,21.20
2022-08-07T03:25:10.427Z,21.13
2022-08-07T03:26:10.289Z,21.31
2022-08-07T03:27:30.521Z,20.51
2022-08-07T03:28:40.789Z,21.34
2022-08-07T03:29:50.520Z,21.39
2022-08-07T03:31:11.350Z,21.17
2022-08-07T03:32:13.601Z,21.54
2022-08-07T03:33:11.689Z,21.27
2022-08-07T03:34:18.619Z,21.42
2022-08-07T03:35:26.392Z,21.55
2022-08-07T03:36:26.603Z,21.39
2022-08-07T03:37:27.749Z,21.10
2022-08-07T03:38:29.850Z,21.44
2022-08-07T03:39:59.145Z,20.83
2022-08-07T03:40:53.942Z,21.23
2022-08-07T03:41:54.966Z,20.97
2022-08-07T03:42:52.598Z,21.30
2022-08-07T03:43:57.311Z,21.37
2022-08-07T03:44:57.839Z,21.72
2022-08-07T03:45:55.825Z,21.71
2022-08-07T03:47:12.995Z,21.92
2022-08-07T03:48:11.468Z,21.88
2022-08-07T03:49:09.955Z,21.98
2022-08-07T03:50:08.095Z,21.78
2022-08-07T03:51:10.252Z,21.81
2022-08-07T03:52:22.373Z,21.74
2022-08-07T03:53:19.899Z,21.84
2022-08-07T03:54:55.049Z,21.86
2022-08-07T03:56:04.154Z,21.91
2022-08-07T03:57:07.419Z,22.14
2022-08-07T03:58:33.298Z,21.20
2022-08-07T03:59:22.454Z,22.13
2022-08-07T04:00:21.091Z,22.19
2022-08-07T04:01:30.213Z,22.19
2022-08-07T04:02:29.127Z,22.30
2022-08-07T04:03:26.196Z,22.25
2022-08-07T04:04:23.575Z,22.42
2022-08-07T04:05:23.974Z,22.38
2022-08-07T04:06:36.336Z,22.46
2022-08-07T04:07:36.308Z,22.49
2022-08-07T04:08:41.696Z,22.66
2022-08-07T04:09:45.405Z,22.71
2022-08-07T04:10:54.275Z,22.68
2022-08-07T04:12:27.436Z,22.63
2022-08-07T04:13:27.734Z,21.74
2022-08-07T04:14:37.333Z,22.38
2022-08-07T04:15:35.312Z,22.30
2022-08-07T04:16:32.742Z,22.56
2022-08-07T04:18:32.000Z,22.61
2022-08-07T04:18:58.977Z,22.30
2022-08-07T04:19:58.969Z,22.25
2022-08-07T04:20:55.982Z,22.40
2022-08-07T04:22:04.851Z,22.55
2022-08-07T04:23:06.614Z,21.92
2022-08-07T04:24:07.860Z,22.51
2022-08-07T04:25:08.681Z,22.72
2022-08-07T04:26:09.016Z,22.65
2022-08-07T04:27:20.778Z,22.48
2022-08-07T04:28:22.679Z,22.62
2022-08-07T04:29:19.555Z,22.47
2022-08-07T04:30:35.671Z,22.66
2022-08-07T04:32:03.026Z,21.90
2022-08-07T04:32:58.646Z,22.47
2022-08-07T04:33:56.686Z,22.39
2022-08-07T04:34:56.737Z,22.48
2022-08-07T04:35:54.393Z,22.38
2022-08-07T04:36:51.659Z,22.49
2022-08-07T04:38:03.313Z,22.54
2022-08-07T04:39:05.376Z,22.66
2022-08-07T04:40:07.761Z,22.09
2022-08-07T04:41:04.904Z,22.56
2022-08-07T04:42:03.896Z,22.56
2022-08-07T04:43:01.209Z,22.64
2022-08-07T04:44:11.994Z,21.89
2022-08-07T04:45:18.642Z,22.69
2022-08-07T04:47:04.249Z,22.66
2022-08-07T04:48:23.662Z,22.45
2022-08-07T04:49:37.711Z,22.67
2022-08-07T04:50:52.804Z,22.65
2022-08-07T04:52:11.358Z,22.64
2022-08-07T04:53:27.947Z,22.60
2022-08-07T04:55:14.987Z,22.59
2022-08-07T04:58:15.615Z,22.62
2022-08-07T04:58:33.815Z,22.69
2022-08-07T05:00:11.340Z,22.60
2022-08-07T05:01:18.301Z,22.44
2022-08-07T05:02:28.001Z,22.72
2022-08-07T05:04:06.975Z,22.85
2022-08-07T05:05:53.334Z,22.94
2022-08-07T05:06:43.506Z,22.69
2022-08-07T05:07:58.356Z,22.97
2022-08-07T05:09:03.153Z,22.99
2022-08-07T05:10:17.713Z,22.81
2022-08-07T05:11:24.537Z,23.09
2022-08-07T05:12:30.430Z,22.88
2022-08-07T05:14:55.125Z,23.06
2022-08-07T05:16:04.585Z,23.59
2022-08-07T05:17:11.976Z,23.57
2022-08-07T05:18:20.122Z,23.99
2022-08-07T05:19:32.604Z,24.20
2022-08-07T05:20:46.544Z,23.97
2022-08-07T05:22:00.133Z,24.10
2022-08-07T05:23:06.960Z,23.83
2022-08-07T05:24:17.770Z,24.01
2022-08-07T05:25:36.631Z,24.08
2022-08-07T05:26:38.811Z,24.13
2022-08-07T05:28:15.914Z,24.34
2022-08-07T05:28:59.656Z,23.98
2022-08-07T05:30:02.729Z,24.45
2022-08-07T05:31:01.481Z,24.54
2022-08-07T05:32:03.459Z,24.34
2022-08-07T05:33:03.798Z,24.45
2022-08-07T05:34:05.438Z,24.54
2022-08-07T05:35:10.225Z,24.47
2022-08-07T05:36:12.209Z,24.44
2022-08-07T05:37:25.475Z,23.96
2022-08-07T05:39:01.498Z,23.83
2022-08-07T05:40:14.398Z,23.52
2022-08-07T05:41:12.018Z,23.61
2022-08-07T05:42:14.076Z,23.76
2022-08-07T05:43:11.573Z,23.99
2022-08-07T05:44:12.563Z,23.99
2022-08-07T05:45:25.987Z,23.26
2022-08-07T05:46:29.508Z,24.11
2022-08-07T05:47:37.849Z,24.27
2022-08-07T05:48:57.999Z,24.37
2022-08-07T05:49:58.715Z,23.96
2022-08-07T05:50:59.577Z,24.82
2022-08-07T05:51:57.811Z,24.92
2022-08-07T05:52:54.675Z,24.99
2022-08-07T05:54:12.381Z,24.98
2022-08-07T05:55:10.780Z,25.35
2022-08-07T05:56:09.998Z,25.09
2022-08-07T05:57:09.911Z,25.47
2022-08-07T05:58:07.923Z,25.18
2022-08-07T05:59:16.098Z,25.11
2022-08-07T06:00:16.367Z,24.61
2022-08-07T06:01:17.566Z,25.15
2022-08-07T06:02:22.538Z,24.87
2022-08-07T06:03:56.562Z,25.17
2022-08-07T06:04:54.304Z,24.93
2022-08-07T06:05:56.675Z,25.77
2022-08-07T06:07:03.425Z,25.25
2022-08-07T06:08:09.298Z,25.57
2022-08-07T06:09:14.815Z,24.61
2022-08-07T06:10:15.451Z,25.59
2022-08-07T06:11:13.747Z,25.23
2022-08-07T06:12:11.496Z,25.40
2022-08-07T06:13:13.637Z,23.95
2022-08-07T06:14:21.008Z,24.74
2022-08-07T06:15:20.417Z,25.34
2022-08-07T06:16:20.268Z,25.64
2022-08-07T06:17:22.295Z,25.59
2022-08-07T06:18:21.559Z,25.75
2022-08-07T06:19:51.858Z,25.85
2022-08-07T06:20:50.241Z,26.23
2022-08-07T06:22:14.339Z,26.05
2022-08-07T06:23:46.741Z,26.42
2022-08-07T06:24:37.979Z,26.32
2022-08-07T06:25:54.884Z,25.93
2022-08-07T06:26:54.109Z,25.93
2022-08-07T06:28:00.983Z,26.45
2022-08-07T06:29:01.192Z,26.37
2022-08-07T06:29:58.223Z,26.19
2022-08-07T06:30:58.163Z,25.95
2022-08-07T06:31:55.762Z,26.25
2022-08-07T06:32:52.492Z,25.79
2022-08-07T06:33:49.417Z,25.49
2022-08-07T06:34:47.994Z,26.11
2022-08-07T06:35:47.743Z,26.19
2022-08-07T06:37:02.698Z,26.32
2022-08-07T06:37:59.890Z,25.89
2022-08-07T06:38:59.291Z,26.23
2022-08-07T06:40:20.788Z,26.61
2022-08-07T06:42:01.567Z,26.74
2022-08-07T06:42:49.627Z,26.51
2022-08-07T06:43:59.265Z,26.23
2022-08-07T06:44:59.817Z,25.99
2022-08-07T06:46:00.849Z,26.78
2022-08-07T06:47:10.587Z,26.85
2022-08-07T06:48:12.319Z,26.78
2022-08-07T06:49:12.271Z,26.62
2022-08-07T06:50:10.906Z,26.55
2022-08-07T06:51:12.352Z,26.24
2022-08-07T06:52:15.991Z,26.70
2022-08-07T06:54:11.934Z,26.57
2022-08-07T06:55:31.199Z,27.00
2022-08-07T06:56:00.269Z,26.87
2022-08-07T06:57:00.582Z,26.90
2022-08-07T06:58:04.575Z,27.05
2022-08-07T07:00:13.311Z,27.31
2022-08-07T07:00:20.386Z,27.27
2022-08-07T07:01:17.761Z,26.57
2022-08-07T07:02:53.874Z,26.98
2022-08-07T07:03:49.838Z,27.01
2022-08-07T07:04:54.943Z,27.03
2022-08-07T07:06:02.463Z,26.87
2022-08-07T07:07:18.839Z,26.85
2022-08-07T07:08:18.563Z,26.42
2022-08-07T07:09:31.068Z,27.38
2022-08-07T07:10:33.862Z,27.56
2022-08-07T07:12:07.790Z,27.41
2022-08-07T07:12:54.702Z,27.20
2022-08-07T07:14:01.197Z,27.25
2022-08-07T07:15:26.377Z,27.22
2022-08-07T07:16:45.254Z,27.25
2022-08-07T07:18:19.247Z,27.37
2022-08-07T07:19:57.661Z,26.81
2022-08-07T07:22:04.049Z,27.19
2022-08-07T07:24:06.134Z,27.84
2022-08-07T07:24:11.129Z,27.16
2022-08-07T07:26:31.169Z,27.83
2022-08-07T07:26:37.283Z,27.30
2022-08-07T07:27:55.823Z,27.67
2022-08-07T07:29:39.867Z,27.68
2022-08-07T07:30:37.746Z,27.83
2022-08-07T07:31:44.435Z,27.55
2022-08-07T07:32:45.967Z,27.82
2022-08-07T07:33:44.901Z,28.19
2022-08-07T07:35:00.408Z,28.14
2022-08-07T07:36:05.339Z,28.03
2022-08-07T07:37:21.939Z,27.74
2022-08-07T07:38:29.114Z,28.13
2022-08-07T07:39:35.769Z,27.99
2022-08-07T07:40:50.737Z,28.09
2022-08-07T07:42:08.859Z,27.43
2022-08-07T07:43:15.455Z,28.09
2022-08-07T07:44:26.122Z,27.35
2022-08-07T07:46:40.606Z,27.08
2022-08-07T07:46:55.690Z,27.94
2022-08-07T07:47:57.698Z,27.91
2022-08-07T07:48:59.936Z,27.90
2022-08-07T07:50:33.946Z,28.06
2022-08-07T07:51:29.805Z,28.08
2022-08-07T07:52:48.573Z,27.99
2022-08-07T07:53:52.743Z,28.05
2022-08-07T07:54:52.103Z,27.74
2022-08-07T07:56:00.518Z,28.14
2022-08-07T07:57:01.534Z,28.26
2022-08-07T07:58:02.985Z,28.01
2022-08-07T07:59:03.460Z,28.14
2022-08-07T08:00:05.535Z,28.19
2022-08-07T08:02:01.609Z,28.32
2022-08-07T08:02:33.909Z,27.77
2022-08-07T08:04:06.343Z,28.39
2022-08-07T08:04:56.414Z,27.57
2022-08-07T08:05:56.597Z,28.30
2022-08-07T08:06:55.670Z,27.84
2022-08-07T08:08:00.819Z,28.31
2022-08-07T08:09:02.326Z,28.41
2022-08-07T08:10:04.826Z,28.66
2022-08-07T08:11:08.131Z,28.64
2022-08-07T08:12:06.878Z,28.73
2022-08-07T08:13:06.221Z,28.77
2022-08-07T08:14:07.612Z,28.56
2022-08-07T08:15:06.782Z,28.84
2022-08-07T08:16:06.561Z,28.96
2022-08-07T08:18:31.270Z,29.09
2022-08-07T08:18:36.585Z,28.08
2022-08-07T08:20:18.508Z,28.89
2022-08-07T08:20:50.777Z,28.70
2022-08-07T08:22:08.103Z,28.63
2022-08-07T08:23:30.077Z,28.31
2022-08-07T08:25:18.885Z,28.00
2022-08-07T08:26:40.515Z,27.55
2022-08-07T08:27:41.566Z,27.70
2022-08-07T08:28:55.961Z,27.84
2022-08-07T08:29:57.626Z,28.46
2022-08-07T08:31:02.303Z,28.54
2022-08-07T08:32:17.987Z,28.77
2022-08-07T08:33:19.408Z,28.59
2022-08-07T08:34:28.964Z,28.33
2022-08-07T08:35:39.285Z,28.80
2022-08-07T08:36:49.284Z,28.29
2022-08-07T08:38:04.726Z,28.06
2022-08-07T08:39:04.242Z,28.17
2022-08-07T08:40:12.231Z,27.96
2022-08-07T08:41:31.389Z,27.85
2022-08-07T08:42:52.539Z,27.66
2022-08-07T08:44:29.639Z,27.79
2022-08-07T08:45:59.154Z,27.84
2022-08-07T08:47:17.327Z,27.99
2022-08-07T08:48:41.481Z,28.08
2022-08-07T08:50:09.339Z,27.98
2022-08-07T08:51:49.970Z,27.67
2022-08-07T08:53:05.314Z,27.78
2022-08-07T08:54:20.427Z,27.82
2022-08-07T08:55:54.609Z,27.81
2022-08-07T08:57:02.157Z,27.96
2022-08-07T08:58:24.734Z,28.11
2022-08-07T08:59:42.136Z,27.54
2022-08-07T09:00:52.825Z,28.28
2022-08-07T09:02:38.007Z,28.19
2022-08-07T09:04:08.671Z,27.40
2022-08-07T09:06:00.425Z,27.93
2022-08-07T09:07:03.567Z,27.90
2022-08-07T09:08:31.269Z,27.86
2022-08-07T09:09:33.320Z,28.18
2022-08-07T09:10:46.914Z,28.20
2022-08-07T09:12:08.977Z,27.67
2022-08-07T09:13:36.969Z,27.85
2022-08-07T09:14:41.607Z,27.88
2022-08-07T09:16:22.504Z,27.86
2022-08-07T09:17:59.606Z,28.09
2022-08-07T09:19:52.811Z,28.33
2022-08-07T09:21:13.978Z,28.47
2022-08-07T09:24:32.872Z,28.18
2022-08-07T09:24:49.117Z,28.01
2022-08-07T09:25:56.291Z,28.51
2022-08-07T09:27:13.616Z,28.96
2022-08-07T09:30:05.814Z,28.83
2022-08-07T09:30:08.783Z,28.90
2022-08-07T09:31:23.502Z,28.12
2022-08-07T09:32:36.440Z,28.84
2022-08-07T09:33:57.563Z,28.73
2022-08-07T09:36:05.014Z,28.82
2022-08-07T09:37:06.305Z,29.26
2022-08-07T09:38:24.485Z,29.34
2022-08-07T09:39:54.115Z,29.50
2022-08-07T09:41:36.308Z,28.79
2022-08-07T09:42:57.869Z,29.43
2022-08-07T09:44:32.694Z,29.60
2022-08-07T09:47:23.618Z,29.57
2022-08-07T09:48:01.733Z,29.55
2022-08-07T09:50:00.405Z,29.51
2022-08-07T09:50:56.051Z,29.50
2022-08-07T09:52:16.359Z,29.57
2022-08-07T09:53:41.323Z,28.73
2022-08-07T09:54:54.548Z,29.20
2022-08-07T09:56:03.885Z,29.19
2022-08-07T09:57:19.764Z,29.36
2022-08-07T09:58:42.246Z,29.28
2022-08-07T10:00:14.491Z,29.37
2022-08-07T10:01:51.881Z,29.25
2022-08-07T10:04:03.572Z,29.35
2022-08-07T10:04:45.997Z,29.78
2022-08-07T10:05:59.240Z,29.90
2022-08-07T10:07:39.912Z,30.05
2022-08-07T10:09:15.442Z,29.56
2022-08-07T10:11:00.303Z,29.75
2022-08-07T10:12:19.831Z,29.14
2022-08-07T10:14:00.243Z,29.14
2022-08-07T10:15:15.204Z,29.39
2022-08-07T10:16:36.987Z,29.49
2022-08-07T10:18:13.209Z,28.94
2022-08-07T10:19:40.521Z,28.86
2022-08-07T10:20:50.507Z,28.67
2022-08-07T10:22:14.343Z,28.62
2022-08-07T10:24:06.813Z,28.60
2022-08-07T10:25:22.648Z,28.75
2022-08-07T10:26:27.953Z,29.01
2022-08-07T10:28:03.333Z,28.74
2022-08-07T10:29:31.326Z,28.63
2022-08-07T10:30:58.586Z,28.68
2022-08-07T10:32:51.125Z,29.03
2022-08-07T10:34:06.652Z,28.83
2022-08-07T10:35:16.478Z,28.46
2022-08-07T10:36:45.604Z,28.68
2022-08-07T10:38:09.995Z,28.81
2022-08-07T10:40:02.565Z,28.95
2022-08-07T10:41:46.633Z,29.12
2022-08-07T10:43:01.896Z,29.04
2022-08-07T10:44:19.238Z,28.81
2022-08-07T10:45:57.205Z,28.78
2022-08-07T10:47:03.954Z,28.86
2022-08-07T10:48:35.447Z,29.14
2022-08-07T10:49:45.348Z,28.41
2022-08-07T10:50:54.346Z,29.26
2022-08-07T10:52:13.803Z,29.22
2022-08-07T10:53:28.110Z,29.08
2022-08-07T10:54:53.339Z,28.94
2022-08-07T10:56:31.666Z,28.10
2022-08-07T10:57:43.281Z,29.17
2022-08-07T10:59:37.256Z,28.94
2022-08-07T11:00:50.626Z,28.85
2022-08-07T11:02:32.833Z,28.67
2022-08-07T11:03:52.969Z,28.62
2022-08-07T11:05:44.942Z,28.57
2022-08-07T11:07:15.013Z,28.74
2022-08-07T11:08:45.801Z,28.65
2022-08-07T11:10:06.961Z,28.43
2022-08-07T11:11:20.118Z,28.14
2022-08-07T11:12:32.369Z,28.41
2022-08-07T11:14:46.354Z,27.97
2022-08-07T11:15:31.829Z,28.19
2022-08-07T11:17:56.836Z,28.97
2022-08-07T11:19:21.465Z,28.56
2022-08-07T11:20:34.319Z,29.10
2022-08-07T11:22:05.464Z,29.11
2022-08-07T11:23:38.422Z,29.28
2022-08-07T11:24:45.398Z,29.38
2022-08-07T11:26:17.562Z,29.57
2022-08-07T11:28:00.768Z,29.66
2022-08-07T11:29:40.646Z,29.88
2022-08-07T11:30:41.909Z,29.75
2022-08-07T11:32:09.480Z,29.96
2022-08-07T11:33:17.576Z,29.91
2022-08-07T11:34:33.584Z,30.07
2022-08-07T11:36:10.379Z,29.85
2022-08-07T11:37:25.766Z,30.21
2022-08-07T11:39:23.228Z,30.15
2022-08-07T11:40:53.409Z,30.00
2022-08-07T11:42:31.602Z,29.87
2022-08-07T11:43:54.374Z,29.50
2022-08-07T11:44:59.301Z,28.55
2022-08-07T11:46:17.186Z,29.01
2022-08-07T11:47:39.028Z,28.27
2022-08-07T11:49:51.494Z,29.56
2022-08-07T11:50:34.981Z,29.73
2022-08-07T11:51:50.576Z,29.77
2022-08-07T11:53:25.422Z,29.74
2022-08-07T11:54:35.763Z,29.33
2022-08-07T11:56:10.056Z,29.59
2022-08-07T11:57:18.859Z,29.82
2022-08-07T11:58:33.641Z,30.02
2022-08-07T12:00:19.320Z,29.88
2022-08-07T12:02:00.119Z,30.09
2022-08-07T12:03:41.349Z,30.14
2022-08-07T12:05:08.940Z,29.87
2022-08-07T12:06:40.288Z,29.83
2022-08-07T12:08:04.809Z,30.13
2022-08-07T12:09:16.831Z,29.76
2022-08-07T12:10:27.709Z,29.79
2022-08-07T12:11:56.109Z,29.53
2022-08-07T12:13:11.520Z,29.91
2022-08-07T12:14:22.022Z,29.57
2022-08-07T12:15:35.837Z,29.90
2022-08-07T12:16:54.951Z,29.52
2022-08-07T12:18:14.125Z,29.70
2022-08-07T12:19:35.951Z,29.59
2022-08-07T12:21:00.385Z,29.49
2022-08-07T12:22:39.260Z,28.68
2022-08-07T12:24:07.465Z,29.28
2022-08-07T12:26:06.271Z,29.03
2022-08-07T12:27:17.960Z,28.68
2022-08-07T12:28:44.864Z,29.21
2022-08-07T12:30:03.221Z,28.94
2022-08-07T12:31:11.797Z,28.70
2022-08-07T12:32:22.896Z,28.78
2022-08-07T12:33:30.846Z,28.67
2022-08-07T12:34:53.456Z,27.95
2022-08-07T12:35:58.056Z,28.65
2022-08-07T12:36:58.786Z,28.94
2022-08-07T12:38:10.871Z,28.25
2022-08-07T12:39:43.933Z,28.67
2022-08-07T12:40:47.581Z,28.38
2022-08-07T12:41:50.030Z,28.49
2022-08-07T12:42:57.196Z,28.24
2022-08-07T12:44:04.354Z,28.19
2022-08-07T12:45:09.184Z,28.39
2022-08-07T12:46:34.214Z,28.47
2022-08-07T12:47:59.468Z,28.57
2022-08-07T12:49:25.880Z,28.56
2022-08-07T12:50:49.095Z,28.85
2022-08-07T12:52:13.798Z,28.49
2022-08-07T12:53:22.227Z,28.81
2022-08-07T12:54:38.141Z,28.75
2022-08-07T12:56:02.287Z,28.61
2022-08-07T12:57:09.521Z,28.46
2022-08-07T12:58:12.925Z,28.68
2022-08-07T12:59:22.535Z,28.90
2022-08-07T13:00:50.176Z,28.77
2022-08-07T13:01:50.993Z,28.93
2022-08-07T13:03:13.058Z,28.69
2022-08-07T13:05:01.983Z,28.90
2022-08-07T13:06:27.798Z,28.88
2022-08-07T13:08:14.297Z,29.00
2022-08-07T13:09:12.651Z,28.39
2022-08-07T13:10:38.069Z,28.82
2022-08-07T13:12:35.327Z,28.87
2022-08-07T13:13:46.954Z,28.52
2022-08-07T13:15:08.194Z,27.71
2022-08-07T13:16:25.078Z,28.61
2022-08-07T13:17:40.031Z,28.71
2022-08-07T13:19:01.133Z,28.54
2022-08-07T13:20:34.989Z,28.71
2022-08-07T13:21:57.724Z,28.07
2022-08-07T13:23:09.834Z,28.69
2022-08-07T13:24:43.870Z,28.69
2022-08-07T13:26:01.639Z,28.70
2022-08-07T13:27:05.749Z,28.74
2022-08-07T13:28:14.250Z,27.95
2022-08-07T13:29:27.196Z,28.23
2022-08-07T13:30:40.861Z,28.26
2022-08-07T13:32:32.234Z,28.61
2022-08-07T13:34:33.385Z,28.69
2022-08-07T13:35:59.785Z,28.73
2022-08-07T13:37:20.082Z,28.21
2022-08-07T13:38:47.855Z,28.70
2022-08-07T13:40:35.199Z,28.84
2022-08-07T13:41:35.691Z,29.00
2022-08-07T13:42:39.673Z,28.87
2022-08-07T13:43:43.437Z,28.46
2022-08-07T13:44:57.660Z,28.83
2022-08-07T13:46:23.304Z,28.98
2022-08-07T13:48:05.998Z,28.94
2022-08-07T13:48:58.506Z,28.78
2022-08-07T13:50:35.520Z,28.95
2022-08-07T13:51:28.419Z,29.27
2022-08-07T13:52:44.611Z,29.43
2022-08-07T13:54:00.608Z,29.54
2022-08-07T13:55:11.044Z,29.46
2022-08-07T13:56:10.017Z,29.43
2022-08-07T13:57:23.802Z,29.42
2022-08-07T13:58:56.633Z,29.08
2022-08-07T13:59:57.623Z,29.44
2022-08-07T14:00:58.523Z,28.84
2022-08-07T14:02:08.621Z,29.13
2022-08-07T14:03:09.084Z,28.78
2022-08-07T14:04:16.844Z,29.02
2022-08-07T14:05:23.549Z,28.90
2022-08-07T14:06:24.766Z,28.76
2022-08-07T14:07:31.435Z,28.38
2022-08-07T14:08:32.435Z,28.22
2022-08-07T14:10:02.890Z,28.45
2022-08-07T14:11:14.431Z,27.67
2022-08-07T14:12:27.475Z,28.19
2022-08-07T14:13:33.830Z,27.91
2022-08-07T14:14:41.529Z,27.47
2022-08-07T14:15:43.284Z,27.68
2022-08-07T14:16:49.857Z,27.69
2022-08-07T14:18:27.061Z,27.58
2022-08-07T14:19:17.734Z,27.81
2022-08-07T14:20:48.671Z,27.83
2022-08-07T14:22:01.367Z,27.71
2022-08-07T14:23:14.720Z,27.67
2022-08-07T14:24:35.575Z,27.19
2022-08-07T14:25:39.341Z,27.31
2022-08-07T14:27:00.144Z,27.64
2022-08-07T14:28:10.755Z,27.17
2022-08-07T14:30:05.596Z,27.63
2022-08-07T14:30:35.074Z,26.61
2022-08-07T14:31:43.402Z,26.50
2022-08-07T14:32:59.698Z,27.41
2022-08-07T14:33:59.227Z,27.02
2022-08-07T14:35:01.391Z,27.38
2022-08-07T14:36:03.132Z,27.48
2022-08-07T14:37:03.205Z,27.20
2022-08-07T14:38:03.065Z,27.31
2022-08-07T14:39:04.752Z,27.49
2022-08-07T14:41:33.620Z,27.43
2022-08-07T14:42:59.821Z,27.52
2022-08-07T14:44:07.870Z,27.57
2022-08-07T14:45:21.271Z,27.46
2022-08-07T14:46:31.384Z,27.42
2022-08-07T14:47:33.979Z,27.47
2022-08-07T14:48:34.358Z,27.64
2022-08-07T14:49:57.020Z,27.01
2022-08-07T14:51:00.118Z,27.34
2022-08-07T14:52:03.258Z,27.44
2022-08-07T14:53:09.866Z,27.68
2022-08-07T14:54:31.006Z,27.79
2022-08-07T14:55:32.725Z,26.95
2022-08-07T14:56:32.432Z,27.83
2022-08-07T14:57:58.424Z,27.53
2022-08-07T14:58:55.266Z,27.67
2022-08-07T15:00:03.463Z,27.85
2022-08-07T15:02:33.049Z,27.30
2022-08-07T15:03:51.619Z,27.83
2022-08-07T15:04:53.185Z,27.43
2022-08-07T15:05:54.226Z,27.34
2022-08-07T15:08:32.237Z,27.99
2022-08-07T15:09:57.877Z,27.98
2022-08-07T15:11:01.783Z,28.02
2022-08-07T15:12:07.833Z,28.13
2022-08-07T15:13:25.347Z,28.14
2022-08-07T15:14:25.517Z,27.92
2022-08-07T15:15:38.840Z,27.96
2022-08-07T15:16:54.920Z,28.18
2022-08-07T15:18:02.404Z,28.28
2022-08-07T15:19:05.746Z,27.49
2022-08-07T15:21:58.540Z,28.15
2022-08-07T15:22:56.033Z,27.51
2022-08-07T15:25:36.756Z,27.99
2022-08-07T15:26:43.987Z,28.10
2022-08-07T15:28:32.169Z,28.14
2022-08-07T15:30:25.086Z,28.11
2022-08-07T15:32:02.104Z,27.68
2022-08-07T15:32:51.036Z,27.63
2022-08-07T15:34:04.258Z,28.02
2022-08-07T15:35:05.135Z,28.17
2022-08-07T15:36:07.898Z,27.61